Time;durP1;ratioP1;P1;durP2;ratioP2;P2;SDS_P1;SDS_P2;PMS_P1;PMS_P2;Temp;Humidity;BMP_temperature;BMP_pressure;BME280_temperature;BME280_humidity;BME280_pressure;Samples;Min_cycle;Max_cycle;Signal;HPM_P1;HPM_P2
2021/01/05 00:01:59;;;;;;;42.85;23.75;;;;;;;-0.32;97.64;100926.84;1767736;81;21611;-67
2021/01/05 00:04:33;;;;;;;52.27;27.25;;;;;;;-0.35;97.37;100930.24;1799216;79;21080;-68
2021/01/05 00:06:57;;;;;;;47.62;26.77;;;;;;;-0.39;97.40;100938.75;1767332;81;21079;-67
2021/01/05 00:09:26;;;;;;;38.55;20.40;;;;;;;-0.46;97.39;100925.12;1799286;79;20933;-68
2021/01/05 00:12:05;;;;;;;38.17;20.08;;;;;;;-0.52;97.47;100933.20;1767802;81;21380;-67
2021/01/05 00:14:36;;;;;;;42.13;22.75;;;;;;;-0.55;97.55;100939.58;1799246;79;21204;-68
2021/01/05 00:17:05;;;;;;;44.40;23.83;;;;;;;-0.60;97.55;100935.72;1738168;81;20970;-69
2021/01/05 00:19:33;;;;;;;39.45;22.22;;;;;;;-0.65;97.58;100933.56;1799276;79;21012;-66
2021/01/05 00:22:02;;;;;;;42.83;24.40;;;;;;;-0.67;97.81;100932.28;1767662;81;21591;-66
2021/01/05 00:24:32;;;;;;;50.67;27.10;;;;;;;-0.65;98.00;100935.27;1799287;79;21012;-66
2021/01/05 00:27:01;;;;;;;42.80;24.02;;;;;;;-0.64;98.04;100936.98;1767681;81;21203;-67
2021/01/05 00:29:29;;;;;;;37.90;20.88;;;;;;;-0.65;97.91;100937.41;1799186;79;20980;-67
2021/01/05 00:32:16;;;;;;;40.85;22.73;;;;;;;-0.70;97.83;100939.08;1767672;81;21638;-67
2021/01/05 00:34:45;;;;;;;40.50;20.48;;;;;;;-0.75;97.87;100933.09;1799398;79;21502;-67
2021/01/05 00:37:15;;;;;;;35.52;20.50;;;;;;;-0.76;98.02;100941.61;1765437;81;20922;-67
2021/01/05 00:39:43;;;;;;;41.08;21.42;;;;;;;-0.77;98.00;100934.36;1771923;81;22104;-68
2021/01/05 00:42:12;;;;;;;43.30;23.67;;;;;;;-0.77;98.12;100927.12;1741217;82;21598;-67
2021/01/05 00:44:40;;;;;;;44.93;24.43;;;;;;;-0.79;98.20;100925.83;1771827;81;21448;-68
2021/01/05 00:47:08;;;;;;;45.28;24.43;;;;;;;-0.80;98.34;100922.02;1741151;82;21634;-67
2021/01/05 00:49:37;;;;;;;49.20;26.82;;;;;;;-0.78;98.57;100919.87;1771773;81;21472;-67
2021/01/05 00:52:07;;;;;;;43.40;23.90;;;;;;;-0.75;98.62;100921.16;1741147;82;21126;-65
2021/01/05 00:54:35;;;;;;;45.80;24.98;;;;;;;-0.74;98.62;100921.59;1771805;81;21377;-66
2021/01/05 00:57:10;;;;;;;42.75;21.82;;;;;;;-0.75;98.55;100918.60;1741150;82;21504;-67
2021/01/05 00:59:40;;;;;;;;;;;;;;;-0.77;98.49;100916.89;1774220;81;20997;-65
2021/01/05 01:02:09;;;;;;;40.43;23.15;;;;;;;-0.76;98.63;100914.34;1769919;81;20406;-66
2021/01/05 01:04:37;;;;;;;46.55;23.95;;;;;;;-0.77;98.51;100916.46;1741166;82;22230;-65
2021/01/05 01:07:05;;;;;;;38.08;20.27;;;;;;;-0.76;98.57;100922.43;1730389;83;21536;-66
2021/01/05 01:09:34;;;;;;;42.53;21.30;;;;;;;-0.75;98.66;100911.36;1741151;81;20953;-67
2021/01/05 01:12:17;;;;;;;41.90;21.20;;;;;;;-0.73;98.60;100921.17;1748074;81;21023;-68
2021/01/05 01:14:47;;;;;;;38.15;21.23;;;;;;;-0.73;98.47;100914.35;1741192;82;20947;-68
2021/01/05 01:17:16;;;;;;;33.63;19.20;;;;;;;-0.77;98.42;100915.61;1771730;80;21205;-67
2021/01/05 01:19:45;;;;;;;37.03;20.82;;;;;;;-0.80;98.47;100916.45;1741102;82;20982;-67
2021/01/05 01:22:19;;;;;;;39.90;21.00;;;;;;;-0.78;98.53;100919.87;1771752;81;21527;-67
2021/01/05 01:24:48;;;;;;;43.50;23.62;;;;;;;-0.79;98.48;100914.33;1718303;82;21058;-66
2021/01/05 01:27:20;;;;;;;38.73;21.82;;;;;;;-0.77;98.51;100922.86;1771799;81;21587;-64
2021/01/05 01:29:49;;;;;;;43.83;24.77;;;;;;;-0.79;98.45;100925.83;1741195;82;21596;-65
2021/01/05 01:32:17;;;;;;;50.43;27.48;;;;;;;-0.79;98.54;100927.11;1771720;81;20943;-65
2021/01/05 01:34:45;;;;;;;45.15;24.55;;;;;;;-0.82;98.49;100925.84;1741136;82;20955;-65
2021/01/05 01:37:17;;;;;;;44.65;25.80;;;;;;;-0.83;98.62;100924.14;1771684;81;20950;-67
2021/01/05 01:39:46;;;;;;;41.28;22.67;;;;;;;-0.82;98.78;100918.59;1734066;82;21032;-66
2021/01/05 01:42:18;;;;;;;47.43;25.17;;;;;;;-0.78;98.97;100913.47;1728345;83;22536;-66
2021/01/05 01:44:49;;;;;;;43.92;24.45;;;;;;;-0.75;98.99;100915.19;1728027;83;21052;-67
2021/01/05 01:47:25;;;;;;;44.58;24.57;;;;;;;-0.74;98.94;100916.48;1728060;82;21001;-66
2021/01/05 01:50:09;;;;;;;43.63;24.05;;;;;;;-0.70;98.98;100916.06;1728132;83;21069;-68
2021/01/05 01:53:11;;;;;;;41.48;23.05;;;;;;;-0.67;98.96;100922.05;1719017;83;21625;-66
2021/01/05 01:56:20;;;;;;;34.48;19.52;;;;;;;-0.65;98.76;100923.76;1728094;83;21630;-66
2021/01/05 01:59:16;;;;;;;46.65;23.98;;;;;;;-0.68;98.42;100924.60;1725700;83;21052;-63
2021/01/05 02:01:59;;;;;;;42.13;21.95;;;;;;;-0.71;98.35;100913.94;1728282;83;21314;-66
2021/01/05 02:04:54;;;;;;;36.00;20.23;;;;;;;-0.73;98.23;100925.86;1727698;83;21040;-66
2021/01/05 02:07:48;;;;;;;38.00;19.82;;;;;;;-0.77;98.14;100916.89;1727606;83;21025;-64
2021/01/05 02:10:43;;;;;;;39.63;22.50;;;;;;;-0.80;98.26;100916.45;1724839;83;21232;-65
2021/01/05 02:13:41;;;;;;;44.95;23.27;;;;;;;-0.81;98.38;100918.61;1728042;83;21558;-66
2021/01/05 02:16:24;;;;;;;45.17;23.60;;;;;;;-0.80;98.32;100919.46;1728047;83;21004;-65
2021/01/05 02:19:03;;;;;;;45.28;23.20;;;;;;;-0.81;98.28;100919.88;1728061;83;21495;-68
2021/01/05 02:21:40;;;;;;;46.65;24.55;;;;;;;-0.82;98.33;100918.17;1728052;82;21029;-66
2021/01/05 02:24:29;;;;;;;43.85;22.75;;;;;;;-0.82;98.26;100914.34;1719301;82;22190;-64
2021/01/05 02:27:06;;;;;;;56.30;28.60;;;;;;;-0.83;98.31;100912.63;1660868;83;21693;-66
2021/01/05 02:29:45;;;;;;;42.45;23.07;;;;;;;-0.83;98.53;100915.19;1728195;83;21491;-67
2021/01/05 02:32:36;;;;;;;49.70;24.05;;;;;;;-0.78;98.60;100916.45;1728022;83;21641;-66
2021/01/05 02:35:42;;;;;;;42.00;21.55;;;;;;;-0.79;98.43;100914.75;1728000;83;21543;-65
2021/01/05 02:38:58;;;;;;;44.73;23.77;;;;;;;-0.79;98.49;100919.44;1734321;81;22347;-66
2021/01/05 02:42:06;;;;;;;46.68;22.48;;;;;;;-0.76;98.38;100913.06;1747490;82;21579;-64
2021/01/05 02:45:27;;;;;;;48.73;25.20;;;;;;;-0.77;98.38;100902.40;1741268;82;21546;-66
2021/01/05 02:48:25;;;;;;;50.25;24.72;;;;;;;-0.76;98.28;100906.66;1771742;81;21388;-66
2021/01/05 02:51:40;;;;;;;46.77;25.08;;;;;;;-0.76;98.32;100901.55;1741135;82;20959;-65
2021/01/05 02:55:09;;;;;;;47.62;22.65;;;;;;;-0.72;98.31;100907.11;1771750;81;21374;-66
2021/01/05 02:58:19;;;;;;;42.60;21.90;;;;;;;-0.72;98.19;100902.42;1741030;82;21480;-64
2021/01/05 03:01:23;;;;;;;52.15;24.67;;;;;;;-0.73;98.19;100912.22;1771676;81;21547;-66
2021/01/05 03:04:10;;;;;;;45.67;22.48;;;;;;;-0.74;98.33;100897.72;1741033;82;21467;-66
2021/01/05 03:07:08;;;;;;;50.85;26.68;;;;;;;-0.72;98.44;100898.58;1771767;81;21479;-67
2021/01/05 03:10:13;;;;;;;57.23;32.17;;;;;;;-0.70;98.47;100891.34;1741131;82;22034;-64
2021/01/05 03:13:25;;;;;;;51.98;27.90;;;;;;;-0.68;98.39;100894.77;1738341;81;21591;-66
2021/01/05 03:16:23;;;;;;;53.30;27.67;;;;;;;-0.69;98.29;100891.78;1741116;82;21592;-66
2021/01/05 03:19:33;;;;;;;58.38;34.00;;;;;;;-0.68;98.35;100881.98;1771838;81;21577;-66
2021/01/05 03:22:20;;;;;;;73.80;42.83;;;;;;;-0.65;98.30;100885.40;1741334;82;21592;-66
2021/01/05 03:25:09;;;;;;;55.17;29.48;;;;;;;-0.65;98.27;100872.19;1751714;81;22164;-67
2021/01/05 03:27:57;;;;;;;45.03;24.23;;;;;;;-0.62;98.37;100871.34;1741220;82;20983;-64
2021/01/05 03:31:05;;;;;;;41.95;22.60;;;;;;;-0.58;98.34;100876.89;1771917;81;20903;-63
2021/01/05 03:33:55;;;;;;;42.50;22.35;;;;;;;-0.57;98.26;100874.34;1741342;82;21030;-66
2021/01/05 03:36:42;;;;;;;42.03;22.05;;;;;;;-0.53;97.99;100867.11;1771855;81;21579;-65
2021/01/05 03:39:15;;;;;;;39.98;21.70;;;;;;;-0.54;97.60;100861.98;1724830;82;21158;-64
2021/01/05 03:42:01;;;;;;;;;;;;;;;-0.56;97.46;100858.57;1774514;81;21563;-67
2021/01/05 03:44:48;;;;;;;42.93;20.92;;;;;;;-0.58;97.42;100857.29;1775240;80;20476;-68
2021/01/05 03:47:25;;;;;;;49.15;23.60;;;;;;;-0.62;97.26;100860.69;1716282;82;21511;-66
2021/01/05 03:50:09;;;;;;;48.50;24.27;;;;;;;-0.66;97.24;100853.85;1661429;82;21527;-67
2021/01/05 03:52:56;;;;;;;42.53;22.62;;;;;;;-0.69;97.37;100844.89;1741289;82;21502;-67
2021/01/05 03:55:44;;;;;;;42.38;22.00;;;;;;;-0.70;97.35;100849.58;1771827;81;21512;-68
2021/01/05 03:58:31;;;;;;;41.92;22.80;;;;;;;-0.73;97.35;100841.47;1741197;82;21032;-66
2021/01/05 04:01:17;;;;;;;38.38;20.65;;;;;;;-0.73;97.52;100855.96;1771963;81;20990;-65
2021/01/05 04:03:46;;;;;;;45.17;24.70;;;;;;;-0.72;97.75;100852.55;1741260;82;21394;-67
2021/01/05 04:06:14;;;;;;;50.03;25.68;;;;;;;-0.68;97.88;100855.55;1741244;82;21197;-67
2021/01/05 04:08:43;;;;;;;37.63;23.10;;;;;;;-0.65;97.81;100849.59;1771758;81;21021;-67
2021/01/05 04:11:16;;;;;;;40.25;21.55;;;;;;;-0.63;97.90;100849.17;1741183;82;21038;-68
2021/01/05 04:13:44;;;;;;;37.58;20.60;;;;;;;-0.62;97.85;100844.06;1749072;81;20934;-67
2021/01/05 04:16:13;;;;;;;41.08;22.00;;;;;;;-0.60;97.86;100844.92;1741169;82;21027;-66
2021/01/05 04:18:41;;;;;;;39.80;21.87;;;;;;;-0.58;97.74;100838.11;1771823;81;21193;-66
2021/01/05 04:21:09;;;;;;;43.38;23.87;;;;;;;-0.58;97.33;100843.22;1741075;82;21082;-65
2021/01/05 04:23:37;;;;;;;46.18;24.02;;;;;;;-0.60;97.35;100842.78;1746524;81;20970;-67
2021/01/05 04:26:08;;;;;;;40.08;21.80;;;;;;;-0.61;97.30;100834.26;1741132;82;20959;-67
2021/01/05 04:28:37;;;;;;;45.70;24.27;;;;;;;-0.59;97.58;100840.66;1771862;81;20930;-67
2021/01/05 04:31:05;;;;;;;53.40;26.42;;;;;;;-0.59;97.61;100846.63;1741178;82;21285;-67
2021/01/05 04:33:33;;;;;;;37.38;20.40;;;;;;;-0.57;97.67;100852.60;1771767;81;20966;-67
2021/01/05 04:36:02;;;;;;;43.85;24.12;;;;;;;-0.54;97.77;100847.49;1741187;82;21563;-68
2021/01/05 04:38:31;;;;;;;40.52;21.48;;;;;;;-0.52;97.58;100848.78;1772208;80;20998;-68
2021/01/05 04:41:00;;;;;;;44.20;22.85;;;;;;;-0.49;97.78;100846.23;1751569;82;21623;-67
2021/01/05 04:43:37;;;;;;;44.18;22.85;;;;;;;-0.44;97.80;100845.81;1782597;80;22175;-67
2021/01/05 04:46:20;;;;;;;46.02;24.23;;;;;;;-0.42;97.59;100862.88;1751511;82;21517;-67
2021/01/05 04:49:21;;;;;;;42.43;22.60;;;;;;;-0.42;97.37;100855.20;1782558;80;20946;-67
2021/01/05 04:51:58;;;;;;;51.53;25.57;;;;;;;-0.42;97.35;100852.64;1751283;82;21413;-67
2021/01/05 04:54:35;;;;;;;39.70;22.37;;;;;;;-0.41;97.31;100849.66;1782364;80;21515;-66
2021/01/05 04:57:20;;;;;;;49.42;25.55;;;;;;;-0.37;97.30;100859.02;1751466;82;21536;-66
2021/01/05 04:59:54;;;;;;;49.42;25.97;;;;;;;-0.38;96.85;100854.33;1753241;80;21779;-65
2021/01/05 05:02:48;;;;;;;42.35;23.52;;;;;;;-0.38;96.57;100854.33;1751505;82;21026;-66
2021/01/05 05:05:47;;;;;;;42.43;25.32;;;;;;;-0.39;96.51;100859.02;1782601;80;21522;-66
2021/01/05 05:08:37;;;;;;;43.83;23.77;;;;;;;-0.42;96.54;100856.91;1751493;82;21532;-66
2021/01/05 05:11:11;;;;;;;49.33;26.23;;;;;;;-0.45;96.60;100855.20;1782478;80;22173;-68
2021/01/05 05:13:45;;;;;;;52.30;26.73;;;;;;;-0.48;96.79;100856.47;1751483;82;21014;-64
2021/01/05 05:16:57;;;;;;;44.88;24.67;;;;;;;-0.48;96.95;100854.33;1782526;80;20937;-65
2021/01/05 05:19:46;;;;;;;59.73;32.58;;;;;;;-0.48;97.17;100856.89;1733651;82;21503;-66
2021/01/05 05:22:32;;;;;;;51.80;27.95;;;;;;;-0.45;97.24;100851.78;1773675;80;21582;-66
2021/01/05 05:25:14;;;;;;;52.65;26.12;;;;;;;-0.43;97.15;100849.66;1751376;82;21484;-67
2021/01/05 05:28:05;;;;;;;60.20;30.82;;;;;;;-0.43;97.03;100848.38;1782419;80;21024;-64
2021/01/05 05:30:40;;;;;;;54.88;30.45;;;;;;;-0.45;97.07;100836.00;1751507;82;20959;-66
2021/01/05 05:33:34;;;;;;;53.23;28.87;;;;;;;-0.43;97.37;100851.36;1782379;80;21053;-65
2021/01/05 05:36:44;;;;;;;46.13;25.92;;;;;;;-0.41;97.17;100846.67;1720328;82;21010;-65
2021/01/05 05:39:36;;;;;;;52.98;26.90;;;;;;;-0.43;96.94;100852.22;1782123;80;22086;-66
2021/01/05 05:42:29;;;;;;;46.85;25.65;;;;;;;-0.45;96.94;100846.66;1751226;82;20987;-66
2021/01/05 05:45:08;;;;;;;46.28;24.30;;;;;;;-0.44;97.00;100848.38;1782121;80;21324;-67
2021/01/05 05:48:04;;;;;;;49.67;25.90;;;;;;;-0.43;96.87;100852.22;1749312;82;21034;-68
2021/01/05 05:50:57;;;;;;;50.78;24.43;;;;;;;-0.45;96.43;100847.94;1782571;80;20985;-67
2021/01/05 05:53:29;;;;;;;64.10;32.28;;;;;;;-0.51;96.34;100847.50;1761491;78;21194;-68
2021/01/05 05:56:08;;;;;;;66.87;31.02;;;;;;;-0.53;96.41;100854.74;1814379;79;20997;-67
2021/01/05 05:58:42;;;;;;;59.48;30.72;;;;;;;-0.57;96.22;100846.63;1812794;79;20945;-68
2021/01/05 06:01:17;;;;;;;48.30;25.65;;;;;;;-0.62;96.24;100839.38;1814346;79;20966;-67
2021/01/05 06:03:45;;;;;;;57.25;28.83;;;;;;;-0.64;96.39;100838.09;1761099;79;21654;-67
2021/01/05 06:06:15;;;;;;;64.87;30.60;;;;;;;-0.65;96.49;100831.27;1791768;78;21732;-67
2021/01/05 06:08:46;;;;;;;59.67;29.63;;;;;;;-0.63;96.60;100826.16;1753647;80;21200;-68
2021/01/05 06:11:15;;;;;;;57.03;27.13;;;;;;;-0.59;96.73;100824.03;1786190;78;21172;-66
2021/01/05 06:13:43;;;;;;;58.23;29.05;;;;;;;-0.55;96.69;100829.59;1772803;80;21006;-67
2021/01/05 06:16:12;;;;;;;55.58;26.07;;;;;;;-0.53;96.72;100818.93;1777688;80;21593;-66
2021/01/05 06:18:40;;;;;;;47.65;23.83;;;;;;;-0.53;96.40;100831.72;1779780;80;21635;-68
2021/01/05 06:21:08;;;;;;;66.87;28.75;;;;;;;-0.55;96.25;100832.14;1781284;78;21780;-67
2021/01/05 06:23:37;;;;;;;55.88;26.97;;;;;;;-0.57;96.31;100821.05;1757301;80;20994;-69
2021/01/05 06:26:06;;;;;;;60.00;30.52;;;;;;;-0.59;96.36;100817.21;1799401;78;21037;-67
2021/01/05 06:28:34;;;;;;;59.60;30.65;;;;;;;-0.59;96.49;100826.59;1759059;80;21120;-68
2021/01/05 06:31:03;;;;;;;59.75;29.77;;;;;;;-0.54;96.76;100830.02;1794029;79;21372;-69
2021/01/05 06:33:32;;;;;;;55.63;29.25;;;;;;;-0.51;96.70;100830.02;1787383;79;21692;-67
2021/01/05 06:36:01;;;;;;;60.38;27.17;;;;;;;-0.50;96.54;100831.30;1791042;80;21056;-66
2021/01/05 06:38:30;;;;;;;54.95;27.58;;;;;;;-0.50;96.50;100823.63;1790023;79;21681;-68
2021/01/05 06:41:01;;;;;;;67.42;31.15;;;;;;;-0.49;96.30;100820.64;1754137;79;21073;-67
2021/01/05 06:43:31;;;;;;;61.83;30.68;;;;;;;-0.53;96.10;100817.23;1774929;79;21206;-65
2021/01/05 06:46:00;;;;;;;58.78;29.75;;;;;;;-0.55;96.06;100822.77;1767812;79;21617;-67
2021/01/05 06:48:29;;;;;;;59.80;29.77;;;;;;;-0.56;96.23;100821.48;1730800;81;21032;-68
2021/01/05 06:50:58;;;;;;;63.75;33.70;;;;;;;-0.55;96.30;100825.75;1761691;80;21623;-68
2021/01/05 06:53:26;;;;;;;70.20;36.73;;;;;;;-0.56;96.13;100810.83;1757519;81;20965;-67
2021/01/05 06:55:56;;;;;;;59.58;33.00;;;;;;;-0.57;96.29;100812.10;1769897;81;21365;-70
2021/01/05 06:58:26;;;;;;;83.72;40.10;;;;;;;-0.60;96.33;100812.95;1752820;80;21616;-68
2021/01/05 07:00:55;;;;;;;119.57;58.48;;;;;;;-0.58;96.41;100827.02;1755708;81;21129;-67
2021/01/05 07:03:25;;;;;;;78.02;38.55;;;;;;;-0.57;96.30;100818.50;1769487;80;21100;-68
2021/01/05 07:05:54;;;;;;;70.45;35.28;;;;;;;-0.56;96.33;100813.81;1772762;80;21002;-65
2021/01/05 07:08:23;;;;;;;56.98;30.40;;;;;;;-0.53;96.43;100801.03;1764656;80;21262;-66
2021/01/05 07:10:51;;;;;;;62.50;31.52;;;;;;;-0.48;96.44;100804.02;1775177;80;21612;-68
2021/01/05 07:13:21;;;;;;;90.22;43.28;;;;;;;-0.45;96.02;100799.33;1746914;80;21612;-69
2021/01/05 07:15:49;;;;;;;68.55;32.78;;;;;;;-0.48;95.95;100811.69;1767896;79;21117;-66
2021/01/05 07:18:18;;;;;;;72.12;36.48;;;;;;;-0.49;95.92;100811.27;1765240;79;21034;-68
2021/01/05 07:20:49;;;;;;;85.77;43.33;;;;;;;-0.50;96.01;100817.23;1738269;80;21250;-69
2021/01/05 07:23:18;;;;;;;91.97;42.62;;;;;;;-0.50;96.12;100813.82;1754400;81;20990;-69
2021/01/05 07:25:48;;;;;;;67.05;34.63;;;;;;;-0.49;96.22;100812.97;1788812;79;21037;-66
2021/01/05 07:28:16;;;;;;;57.17;30.52;;;;;;;-0.47;96.22;100804.45;1753529;81;21012;-67
2021/01/05 07:30:45;;;;;;;59.27;32.38;;;;;;;-0.44;96.12;100808.29;1780996;79;21102;-69
2021/01/05 07:33:14;;;;;;;75.90;36.70;;;;;;;-0.43;95.92;100819.38;1769686;79;21208;-66
2021/01/05 07:35:47;;;;;;;66.10;34.05;;;;;;;-0.44;95.51;100811.27;1783401;79;21038;-66
2021/01/05 07:38:15;;;;;;;64.20;35.33;;;;;;;-0.48;95.26;100812.12;1783608;79;21097;-67
2021/01/05 07:40:43;;;;;;;51.00;27.55;;;;;;;-0.49;95.41;100807.86;1791241;78;21024;-66
2021/01/05 07:43:11;;;;;;;63.15;32.35;;;;;;;-0.48;95.53;100809.56;1779132;79;21084;-66
2021/01/05 07:45:41;;;;;;;72.35;35.35;;;;;;;-0.46;95.38;100797.62;1777867;79;21428;-67
2021/01/05 07:48:10;;;;;;;70.45;33.98;;;;;;;-0.44;95.44;100807.44;1798791;79;21627;-66
2021/01/05 07:50:38;;;;;;;70.72;34.53;;;;;;;-0.43;95.42;100809.14;1798010;79;22211;-68
2021/01/05 07:53:07;;;;;;;62.40;31.65;;;;;;;-0.41;95.41;100807.44;1779126;79;21022;-69
2021/01/05 07:55:38;;;;;;;66.95;35.65;;;;;;;-0.39;95.43;100810.83;1784365;79;21093;-68
2021/01/05 07:58:07;;;;;;;70.55;34.65;;;;;;;-0.38;95.45;100803.58;1764208;79;21616;-67
2021/01/05 08:00:37;;;;;;;83.35;40.70;;;;;;;-0.36;95.49;100809.55;1779569;80;21240;-69
2021/01/05 08:03:06;;;;;;;75.08;36.98;;;;;;;-0.35;95.45;100805.71;1779846;80;21139;-68
2021/01/05 08:05:35;;;;;;;63.05;33.95;;;;;;;-0.32;95.54;100810.41;1774803;80;21137;-66
2021/01/05 08:08:07;;;;;;;73.50;35.63;;;;;;;-0.30;95.33;100798.05;1781206;78;21030;-67
2021/01/05 08:10:38;;;;;;;67.40;31.45;;;;;;;-0.30;94.97;100794.62;1769319;80;21925;-68
2021/01/05 08:13:09;;;;;;;56.90;29.70;;;;;;;-0.32;94.88;100787.38;1771780;80;21041;-68
2021/01/05 08:15:38;;;;;;;56.42;29.52;;;;;;;-0.31;95.03;100797.61;1774519;80;21782;-66
2021/01/05 08:18:07;;;;;;;56.83;30.68;;;;;;;-0.29;94.90;100791.22;1797124;78;21033;-67
2021/01/05 08:20:35;;;;;;;63.33;33.02;;;;;;;-0.28;94.83;100785.25;1788110;79;21052;-73
2021/01/05 08:23:04;;;;;;;63.55;32.30;;;;;;;-0.28;94.98;100784.82;1765134;80;21476;-67
2021/01/05 08:25:32;;;;;;;57.70;30.02;;;;;;;-0.27;94.34;100789.52;1795119;79;21047;-67
2021/01/05 08:28:00;;;;;;;59.70;31.27;;;;;;;-0.32;94.24;100786.95;1770427;79;21075;-66
2021/01/05 08:30:33;;;;;;;62.85;35.30;;;;;;;-0.35;94.20;100780.55;1765873;79;21118;-66
2021/01/05 08:33:05;;;;;;;84.22;44.13;;;;;;;-0.40;94.50;100771.59;1738798;79;21052;-67
2021/01/05 08:35:35;;;;;;;83.82;46.68;;;;;;;-0.39;94.55;100769.89;1774020;80;21183;-69
2021/01/05 08:38:04;;;;;;;60.52;33.40;;;;;;;-0.39;94.76;100766.05;1760931;80;21579;-66
2021/01/05 08:40:34;;;;;;;57.83;31.80;;;;;;;-0.36;94.61;100778.42;1775538;79;21472;-66
2021/01/05 08:43:05;;;;;;;56.00;28.92;;;;;;;-0.35;94.69;100770.31;1775513;80;21041;-67
2021/01/05 08:45:34;;;;;;;56.37;29.37;;;;;;;-0.34;94.66;100769.04;1775613;80;21409;-68
2021/01/05 08:48:04;;;;;;;57.45;29.72;;;;;;;-0.32;94.50;100757.52;1751670;80;22037;-68
2021/01/05 08:50:34;;;;;;;53.15;27.98;;;;;;;-0.29;94.56;100756.67;1769246;80;21029;-67
2021/01/05 08:53:08;;;;;;;50.88;27.87;;;;;;;-0.28;94.32;100749.00;1738155;80;21607;-66
2021/01/05 08:55:40;;;;;;;52.78;27.95;;;;;;;-0.27;94.17;100751.98;1757221;80;21057;-73
2021/01/05 08:58:08;;;;;;;47.17;25.15;;;;;;;-0.26;94.30;100755.39;1772393;79;21112;-67
2021/01/05 09:00:37;;;;;;;49.08;28.83;;;;;;;-0.24;94.23;100758.80;1757556;80;21204;-67
2021/01/05 09:03:08;;;;;;;60.10;33.80;;;;;;;-0.25;94.12;100772.45;1825505;77;21086;-66
2021/01/05 09:05:40;;;;;;;65.25;36.70;;;;;;;-0.25;94.03;100766.05;1750894;80;21607;-67
2021/01/05 09:08:09;;;;;;;54.05;31.80;;;;;;;-0.25;94.05;100764.35;1748861;80;21203;-68
2021/01/05 09:10:39;;;;;;;58.58;31.15;;;;;;;-0.23;94.27;100766.48;1756032;80;21029;-67
2021/01/05 09:13:08;;;;;;;57.23;30.08;;;;;;;-0.21;93.75;100765.20;1753257;80;21790;-65
2021/01/05 09:15:36;;;;;;;60.95;34.27;;;;;;;-0.24;93.78;100772.45;1748065;79;21662;-68
2021/01/05 09:18:06;;;;;;;69.85;34.90;;;;;;;-0.25;93.76;100783.55;1776972;79;21131;-68
2021/01/05 09:20:37;;;;;;;63.68;34.18;;;;;;;-0.23;94.24;100783.55;1767914;79;20995;-67
2021/01/05 09:23:08;;;;;;;66.95;34.85;;;;;;;-0.22;93.89;100780.98;1773704;80;21017;-66
2021/01/05 09:25:38;;;;;;;56.08;32.85;;;;;;;-0.21;93.89;100781.84;1817388;77;21199;-67
2021/01/05 09:28:07;;;;;;;56.42;30.85;;;;;;;-0.20;93.74;100783.55;1819036;77;21092;-67
2021/01/05 09:30:36;;;;;;;49.05;27.42;;;;;;;-0.21;93.60;100778.00;1803229;78;21127;-68
2021/01/05 09:33:05;;;;;;;56.50;31.02;;;;;;;-0.23;93.51;100772.03;1812512;77;21048;-67
2021/01/05 09:35:35;;;;;;;57.13;31.73;;;;;;;-0.25;93.48;100776.30;1749227;80;21104;-68
2021/01/05 09:38:08;;;;;;;67.17;35.60;;;;;;;-0.28;93.58;100766.05;1787991;79;21184;-68
2021/01/05 09:40:40;;;;;;;59.90;33.23;;;;;;;-0.29;93.87;100766.48;1776798;78;21033;-67
2021/01/05 09:43:11;;;;;;;60.23;30.85;;;;;;;-0.27;94.08;100766.05;1793409;78;21106;-69
2021/01/05 09:45:45;;;;;;;48.48;27.15;;;;;;;-0.22;94.21;100759.66;1803754;78;21496;-67
2021/01/05 09:48:17;;;;;;;44.15;25.17;;;;;;;-0.17;94.21;100750.27;1799974;78;21604;-67
2021/01/05 09:50:46;;;;;;;43.78;24.55;;;;;;;-0.12;94.08;100745.58;1842151;77;22238;-68
2021/01/05 09:53:16;;;;;;;48.85;29.12;;;;;;;-0.10;93.58;100735.34;1835625;77;21089;-71
2021/01/05 09:55:45;;;;;;;85.00;47.70;;;;;;;-0.08;93.55;100737.47;1838747;77;21093;-70
2021/01/05 09:58:13;;;;;;;71.20;40.58;;;;;;;-0.05;93.42;100740.02;1841015;77;21187;-69
2021/01/05 10:00:46;;;;;;;67.55;37.48;;;;;;;-0.04;93.15;100731.06;1835910;77;21079;-71
2021/01/05 10:03:29;;;;;;;52.95;31.17;;;;;;;-0.04;92.86;100738.75;1845040;77;21922;-70
2021/01/05 10:05:58;;;;;;;52.48;30.72;;;;;;;-0.08;92.87;100736.19;1833997;77;21715;-68
2021/01/05 10:08:26;;;;;;;58.20;33.67;;;;;;;-0.08;93.08;100736.19;1828470;78;21019;-65
2021/01/05 10:10:54;;;;;;;64.15;34.65;;;;;;;-0.06;93.19;100746.00;1853212;77;21012;-64
2021/01/05 10:13:24;;;;;;;58.50;34.45;;;;;;;-0.06;93.20;100722.96;1842398;77;21783;-64
2021/01/05 10:15:53;;;;;;;55.15;32.05;;;;;;;-0.04;93.49;100721.25;1849961;77;21376;-66
2021/01/05 10:18:22;;;;;;;55.78;32.50;;;;;;;-0.02;93.68;100722.95;1845127;77;21389;-68
2021/01/05 10:20:51;;;;;;;49.15;27.32;;;;;;;0.02;93.45;100728.04;1813729;77;21301;-67
2021/01/05 10:23:24;;;;;;;51.75;29.50;;;;;;;0.04;93.31;100736.14;1774375;78;21105;-69
2021/01/05 10:25:52;;;;;;;51.68;28.27;;;;;;;0.04;93.05;100731.02;1782497;78;21020;-67
2021/01/05 10:28:21;;;;;;;49.27;28.00;;;;;;;0.03;93.14;100730.59;1798601;79;21195;-66
2021/01/05 10:30:49;;;;;;;43.28;25.57;;;;;;;0.03;93.17;100721.64;1794631;79;21619;-67
2021/01/05 10:33:18;;;;;;;41.88;23.95;;;;;;;0.06;93.32;100720.78;1797989;79;21731;-70
2021/01/05 10:35:48;;;;;;;46.45;24.25;;;;;;;0.06;92.96;100719.07;1766565;79;39089;-70
2021/01/05 10:38:19;;;;;;;47.48;27.48;;;;;;;0.07;93.03;100709.68;1799613;78;21074;-68
2021/01/05 10:40:52;;;;;;;39.05;23.77;;;;;;;0.05;93.05;100703.28;1813000;78;21419;-67
2021/01/05 10:43:24;;;;;;;;;;;;;;;0.06;93.27;100706.70;1760527;80;21061;-67
2021/01/05 10:45:52;;;;;;;46.92;26.42;;;;;;;0.07;93.30;100698.16;1760237;80;20593;-64
2021/01/05 10:48:21;;;;;;;51.42;28.38;;;;;;;0.08;93.47;100699.86;1755683;80;20985;-67
2021/01/05 10:50:50;;;;;;;70.60;38.35;;;;;;;0.10;93.54;100696.45;1786779;79;20998;-69
2021/01/05 10:53:18;;;;;;;56.88;28.90;;;;;;;0.12;93.46;100708.81;1772783;79;21116;-69
2021/01/05 10:55:46;;;;;;;54.35;27.80;;;;;;;0.11;93.18;100701.99;1774407;79;21429;-69
2021/01/05 10:58:16;;;;;;;54.60;30.43;;;;;;;0.07;93.24;100690.48;1728098;81;21050;-68
2021/01/05 11:00:44;;;;;;;55.40;30.48;;;;;;;0.04;93.42;100682.80;1772734;79;21575;-67
2021/01/05 11:03:15;;;;;;;51.90;28.35;;;;;;;0.05;93.76;100675.12;1771672;78;21068;-70
2021/01/05 11:05:44;;;;;;;55.63;30.00;;;;;;;0.08;94.00;100669.98;1783415;79;21720;-67
2021/01/05 11:08:12;;;;;;;51.28;29.25;;;;;;;0.11;93.92;100677.66;1783608;79;21129;-66
2021/01/05 11:10:42;;;;;;;57.50;27.62;;;;;;;0.13;93.96;100663.58;1751498;79;21034;-66
2021/01/05 11:13:10;;;;;;;59.25;29.42;;;;;;;0.12;93.71;100652.91;1771681;79;21065;-65
2021/01/05 11:15:38;;;;;;;58.73;31.85;;;;;;;0.10;93.83;100650.78;1746651;79;21588;-67
2021/01/05 11:18:09;;;;;;;72.62;40.92;;;;;;;0.09;94.04;100648.65;1773149;80;21358;-68
2021/01/05 11:20:44;;;;;;;80.67;48.17;;;;;;;0.11;94.20;100645.66;1746904;80;22821;-66
2021/01/05 11:23:13;;;;;;;80.67;38.73;;;;;;;0.16;94.25;100649.48;1757668;80;22052;-65
2021/01/05 11:25:43;;;;;;;50.10;27.60;;;;;;;0.17;93.98;100640.52;1784628;79;20998;-65
2021/01/05 11:28:11;;;;;;;48.63;26.07;;;;;;;0.17;93.87;100651.19;1769756;80;21001;-66
2021/01/05 11:30:42;;;;;;;48.75;28.47;;;;;;;0.15;93.89;100638.39;1747093;80;21188;-67
2021/01/05 11:33:10;;;;;;;52.50;31.60;;;;;;;0.14;94.06;100629.00;1749046;80;21168;-67
2021/01/05 11:35:43;;;;;;;53.52;30.52;;;;;;;0.17;94.23;100638.38;1770944;80;21044;-66
2021/01/05 11:38:14;;;;;;;56.45;30.12;;;;;;;0.22;94.43;100647.75;1761780;80;21735;-65
2021/01/05 11:40:43;;;;;;;48.98;27.35;;;;;;;0.27;94.31;100646.45;1782876;80;21038;-66
2021/01/05 11:43:11;;;;;;;49.93;26.93;;;;;;;0.31;94.21;100636.63;1763008;79;21154;-65
2021/01/05 11:45:40;;;;;;;49.20;27.32;;;;;;;0.31;93.95;100632.35;1766866;80;20997;-65
2021/01/05 11:48:08;;;;;;;49.30;28.38;;;;;;;0.30;93.93;100629.37;1766972;80;21553;-66
2021/01/05 11:50:39;;;;;;;47.93;26.75;;;;;;;0.29;93.85;100630.23;1779978;80;21630;-66